createdAt,value
2023-07-03T00:00:05.019Z,13.54
2023-07-03T00:01:05.028Z,13.53
2023-07-03T00:02:05.059Z,13.53
2023-07-03T00:03:05.029Z,13.48
2023-07-03T00:04:04.997Z,13.41
2023-07-03T00:05:05.056Z,13.36
2023-07-03T00:06:04.958Z,13.29
2023-07-03T00:07:04.933Z,13.29
2023-07-03T00:08:04.922Z,13.35
2023-07-03T00:09:04.906Z,13.27
2023-07-03T00:10:04.924Z,13.24
2023-07-03T00:11:04.908Z,13.22
2023-07-03T00:12:04.880Z,13.12
2023-07-03T00:13:04.879Z,13.06
2023-07-03T00:14:04.850Z,12.99
2023-07-03T00:15:04.873Z,12.94
2023-07-03T00:16:04.870Z,12.91
2023-07-03T00:17:04.835Z,12.87
2023-07-03T00:18:04.829Z,12.79
2023-07-03T00:19:04.792Z,12.74
2023-07-03T00:20:04.807Z,12.71
2023-07-03T00:21:04.767Z,12.70
2023-07-03T00:22:04.755Z,12.67
2023-07-03T00:23:04.763Z,12.67
2023-07-03T00:24:04.753Z,12.62
2023-07-03T00:25:04.743Z,12.59
2023-07-03T00:26:04.721Z,12.58
2023-07-03T00:27:04.708Z,12.54
2023-07-03T00:28:04.717Z,12.55
2023-07-03T00:29:04.702Z,12.55
2023-07-03T00:30:04.670Z,12.52
2023-07-03T00:31:04.666Z,12.48
2023-07-03T00:32:04.722Z,12.49
2023-07-03T00:33:04.658Z,12.49
2023-07-03T00:34:04.654Z,12.44
2023-07-03T00:35:04.620Z,12.38
2023-07-03T00:36:04.607Z,12.31
2023-07-03T00:37:04.605Z,12.30
2023-07-03T00:38:04.596Z,12.31
2023-07-03T00:39:04.590Z,12.29
2023-07-03T00:40:04.551Z,12.31
2023-07-03T00:41:04.570Z,12.33
2023-07-03T00:42:04.542Z,12.31
2023-07-03T00:43:04.545Z,12.30
2023-07-03T00:44:04.516Z,12.29
2023-07-03T00:45:04.498Z,12.23
2023-07-03T00:46:04.533Z,12.19
2023-07-03T00:47:04.484Z,12.13
2023-07-03T00:48:04.513Z,12.08
2023-07-03T00:49:04.459Z,12.01
2023-07-03T00:50:04.458Z,11.97
2023-07-03T00:51:04.434Z,11.93
2023-07-03T00:52:04.447Z,11.84
2023-07-03T00:53:04.438Z,11.82
2023-07-03T00:54:04.413Z,11.84
2023-07-03T00:55:04.507Z,11.87
2023-07-03T00:56:04.427Z,11.87
2023-07-03T00:57:04.391Z,11.84
2023-07-03T00:58:04.356Z,11.82
2023-07-03T00:59:04.353Z,11.81
2023-07-03T01:00:04.340Z,11.77
2023-07-03T01:01:04.341Z,11.72
2023-07-03T01:02:04.357Z,11.75
2023-07-03T01:03:04.334Z,11.78
2023-07-03T01:04:04.299Z,11.74
2023-07-03T01:05:04.311Z,11.72
2023-07-03T01:06:04.345Z,11.67
2023-07-03T01:07:04.260Z,11.62
2023-07-03T01:08:04.246Z,11.62
2023-07-03T01:09:04.235Z,11.63
2023-07-03T01:10:04.227Z,11.63
2023-07-03T01:11:04.227Z,11.60
2023-07-03T01:12:04.206Z,11.62
2023-07-03T01:13:04.215Z,11.60
2023-07-03T01:14:04.188Z,11.57
2023-07-03T01:15:04.185Z,11.62
2023-07-03T01:16:04.232Z,11.66
2023-07-03T01:17:04.154Z,11.63
2023-07-03T01:18:04.137Z,11.60
2023-07-03T01:19:04.117Z,11.60
2023-07-03T01:20:04.140Z,11.60
2023-07-03T01:21:04.107Z,11.57
2023-07-03T01:22:04.087Z,11.56
2023-07-03T01:23:04.082Z,11.53
2023-07-03T01:24:04.066Z,11.49
2023-07-03T01:25:04.075Z,11.45
2023-07-03T01:26:04.038Z,11.41
2023-07-03T01:27:04.071Z,11.39
2023-07-03T01:28:04.035Z,11.36
2023-07-03T01:29:04.125Z,11.31
2023-07-03T01:30:04.057Z,11.28
2023-07-03T01:31:04.035Z,11.24
2023-07-03T01:32:03.988Z,11.23
2023-07-03T01:33:03.988Z,11.20
2023-07-03T01:34:03.983Z,11.19
2023-07-03T01:35:03.946Z,11.16
2023-07-03T01:36:03.925Z,11.13
2023-07-03T01:37:03.926Z,11.09
2023-07-03T01:38:03.916Z,11.09
2023-07-03T01:39:03.919Z,11.08
2023-07-03T01:40:03.893Z,11.06
2023-07-03T01:41:03.875Z,11.03
2023-07-03T01:42:03.880Z,10.99
2023-07-03T01:43:03.877Z,10.94
2023-07-03T01:44:03.862Z,10.91
2023-07-03T01:45:03.837Z,10.90
2023-07-03T01:46:03.851Z,10.91
2023-07-03T01:47:03.821Z,10.90
2023-07-03T01:48:03.852Z,10.87
2023-07-03T01:49:03.795Z,10.86
2023-07-03T01:50:03.796Z,10.84
2023-07-03T01:51:03.778Z,10.81
2023-07-03T01:52:03.772Z,10.78
2023-07-03T01:53:03.768Z,10.76
2023-07-03T01:54:03.722Z,10.75
2023-07-03T01:55:03.723Z,10.70
2023-07-03T01:56:03.712Z,10.69
2023-07-03T01:57:03.726Z,10.68
2023-07-03T01:58:03.746Z,10.66
2023-07-03T01:59:03.675Z,10.63
2023-07-03T02:01:25.338Z,10.66
2023-07-03T02:02:41.807Z,10.60
2023-07-03T02:02:47.252Z,10.55
2023-07-03T02:03:47.204Z,10.54
2023-07-03T02:04:47.206Z,10.51
2023-07-03T02:05:47.206Z,10.49
2023-07-03T02:06:47.178Z,10.47
2023-07-03T02:07:47.144Z,10.46
2023-07-03T02:08:47.133Z,10.49
2023-07-03T02:09:47.130Z,10.51
2023-07-03T02:10:47.133Z,10.49
2023-07-03T02:11:47.133Z,10.47
2023-07-03T02:12:47.082Z,10.46
2023-07-03T02:13:47.076Z,10.43
2023-07-03T02:14:47.071Z,10.43
2023-07-03T02:15:47.076Z,10.46
2023-07-03T02:16:47.084Z,10.39
2023-07-03T02:20:55.638Z,10.34
2023-07-03T02:21:56.631Z,10.34
2023-07-03T02:22:56.610Z,10.29
2023-07-03T02:23:56.607Z,10.28
2023-07-03T02:24:56.614Z,10.31
2023-07-03T02:25:56.590Z,10.26
2023-07-03T02:26:56.569Z,10.22
2023-07-03T02:27:56.557Z,10.17
2023-07-03T02:28:56.567Z,10.16
2023-07-03T02:29:56.553Z,10.14
2023-07-03T02:30:56.527Z,10.13
2023-07-03T02:31:56.503Z,10.11
2023-07-03T02:32:56.560Z,10.13
2023-07-03T02:33:56.501Z,10.10
2023-07-03T02:34:56.499Z,10.07
2023-07-03T02:35:56.475Z,10.06
2023-07-03T02:36:56.458Z,10.04
2023-07-03T02:37:56.443Z,10.04
2023-07-03T02:38:56.446Z,10.01
2023-07-03T02:39:58.006Z,10.01
2023-07-03T02:40:56.413Z,10.06
2023-07-03T02:41:56.396Z,10.06
2023-07-03T02:42:56.423Z,10.02
2023-07-03T02:43:56.390Z,10.01
2023-07-03T02:44:56.372Z,9.99
2023-07-03T02:45:56.355Z,9.96
2023-07-03T02:46:56.375Z,9.95
2023-07-03T02:47:56.391Z,9.95
2023-07-03T02:48:56.335Z,9.95
2023-07-03T02:49:56.332Z,9.92
2023-07-03T02:50:56.300Z,9.91
2023-07-03T02:51:56.286Z,9.89
2023-07-03T02:52:56.309Z,9.92
2023-07-03T02:53:56.298Z,9.93
2023-07-03T02:54:56.280Z,9.93
2023-07-03T02:55:56.253Z,9.95
2023-07-03T02:56:56.246Z,9.93
2023-07-03T02:57:56.280Z,9.93
2023-07-03T02:58:56.208Z,9.95
2023-07-03T02:59:56.206Z,9.96
2023-07-03T03:00:56.230Z,9.96
2023-07-03T03:01:56.195Z,9.98
2023-07-03T03:02:56.277Z,10.02
2023-07-03T03:05:06.887Z,10.10
2023-07-03T03:06:07.873Z,10.11
2023-07-03T03:07:07.851Z,10.14
2023-07-03T03:08:07.821Z,10.16
2023-07-03T03:09:07.816Z,10.18
2023-07-03T03:10:07.895Z,10.18
2023-07-03T03:11:07.860Z,10.16
2023-07-03T03:12:07.780Z,10.18
2023-07-03T03:13:07.762Z,10.17
2023-07-03T03:14:07.757Z,10.17
2023-07-03T03:15:07.760Z,10.17
2023-07-03T03:16:07.763Z,10.13
2023-07-03T03:17:07.731Z,10.10
2023-07-03T03:18:07.758Z,10.07
2023-07-03T03:19:07.713Z,10.02
2023-07-03T03:20:07.707Z,10.01
2023-07-03T03:21:07.732Z,9.96
2023-07-03T03:22:07.679Z,9.95
2023-07-03T03:23:07.654Z,9.95
2023-07-03T03:24:07.647Z,9.92
2023-07-03T03:25:07.684Z,9.88
2023-07-03T03:26:07.622Z,9.86
2023-07-03T03:27:07.671Z,9.83
2023-07-03T03:28:07.606Z,9.83
2023-07-03T03:29:07.596Z,9.86
2023-07-03T03:30:07.641Z,9.85
2023-07-03T03:31:07.588Z,9.85
2023-07-03T03:32:07.551Z,9.85
2023-07-03T03:33:07.540Z,9.81
2023-07-03T03:34:07.575Z,9.81
2023-07-03T03:35:07.552Z,9.81
2023-07-03T03:36:07.506Z,9.80
2023-07-03T03:37:07.505Z,9.78
2023-07-03T03:38:07.504Z,9.81
2023-07-03T03:39:07.500Z,9.77
2023-07-03T03:40:07.478Z,9.77
2023-07-03T03:41:07.443Z,9.75
2023-07-03T03:42:07.444Z,9.75
2023-07-03T03:43:07.421Z,9.77
2023-07-03T03:44:07.444Z,9.77
2023-07-03T03:45:07.424Z,9.77
2023-07-03T03:46:07.394Z,9.78
2023-07-03T03:47:07.404Z,9.81
2023-07-03T03:48:07.474Z,9.85
2023-07-03T03:49:07.397Z,9.91
2023-07-03T03:50:07.361Z,9.96
2023-07-03T03:51:07.365Z,10.02
2023-07-03T03:52:07.354Z,10.07
2023-07-03T03:53:07.369Z,10.13
2023-07-03T03:54:07.319Z,10.17
2023-07-03T03:55:07.298Z,10.20
2023-07-03T03:56:07.284Z,10.24
2023-07-03T03:57:07.270Z,10.26
2023-07-03T03:58:07.268Z,10.31
2023-07-03T03:59:07.252Z,10.34
2023-07-03T04:00:07.238Z,10.35
2023-07-03T04:01:07.217Z,10.38
2023-07-03T04:02:07.293Z,10.42
2023-07-03T04:03:07.266Z,10.44
2023-07-03T04:04:07.269Z,10.47
2023-07-03T04:05:07.215Z,10.51
2023-07-03T04:06:07.169Z,10.54
2023-07-03T04:07:07.171Z,10.60
2023-07-03T04:08:07.138Z,10.63
2023-07-03T04:09:07.214Z,10.68
2023-07-03T04:10:07.136Z,10.70
2023-07-03T04:11:07.123Z,10.72
2023-07-03T04:12:07.113Z,10.75
2023-07-03T04:13:07.109Z,10.76
2023-07-03T04:14:07.150Z,10.80
2023-07-03T04:15:07.078Z,10.87
2023-07-03T04:16:07.100Z,10.90
2023-07-03T04:17:07.048Z,10.94
2023-07-03T04:18:07.049Z,11.01
2023-07-03T04:19:07.012Z,11.02
2023-07-03T04:20:07.003Z,11.05
2023-07-03T04:21:07.011Z,11.09
2023-07-03T04:22:06.991Z,11.16
2023-07-03T04:23:06.994Z,11.20
2023-07-03T04:24:06.957Z,11.23
2023-07-03T04:25:06.966Z,11.26
2023-07-03T04:26:06.950Z,11.30
2023-07-03T04:27:06.926Z,11.35
2023-07-03T04:28:06.920Z,11.42
2023-07-03T04:29:06.906Z,11.44
2023-07-03T04:30:06.918Z,11.48
2023-07-03T04:31:06.921Z,11.53
2023-07-03T04:32:06.940Z,11.57
2023-07-03T04:33:06.879Z,11.60
2023-07-03T04:34:06.856Z,11.67
2023-07-03T04:35:06.869Z,11.77
2023-07-03T04:36:06.837Z,11.78
2023-07-03T04:37:06.811Z,11.85
2023-07-03T04:38:06.822Z,11.93
2023-07-03T04:39:06.786Z,11.98
2023-07-03T04:40:06.800Z,12.01
2023-07-03T04:41:06.782Z,12.05
2023-07-03T04:42:06.753Z,12.13
2023-07-03T04:43:06.745Z,12.16
2023-07-03T04:44:06.785Z,12.19
2023-07-03T04:45:06.738Z,12.21
2023-07-03T04:46:06.768Z,12.22
2023-07-03T04:47:06.690Z,12.30
2023-07-03T04:48:06.690Z,12.30
2023-07-03T04:49:06.730Z,12.30
2023-07-03T04:50:06.667Z,12.36
2023-07-03T04:51:06.658Z,12.44
2023-07-03T04:52:06.636Z,12.52
2023-07-03T04:53:06.642Z,12.58
2023-07-03T04:54:06.640Z,12.69
2023-07-03T04:55:06.605Z,12.70
2023-07-03T04:56:06.611Z,12.70
2023-07-03T04:57:06.596Z,12.76
2023-07-03T04:58:06.597Z,12.80
2023-07-03T04:59:06.577Z,12.85
2023-07-03T05:00:06.573Z,12.91
2023-07-03T05:01:06.567Z,12.91
2023-07-03T05:02:06.541Z,12.94
2023-07-03T05:03:06.636Z,13.03
2023-07-03T05:04:06.654Z,13.14
2023-07-03T05:05:06.558Z,13.21
2023-07-03T05:06:06.485Z,13.24
2023-07-03T05:07:06.474Z,13.28
2023-07-03T05:08:06.495Z,13.36
2023-07-03T05:09:06.449Z,13.39
2023-07-03T05:10:06.450Z,13.44
2023-07-03T05:11:06.437Z,13.50
2023-07-03T05:12:06.460Z,13.59
2023-07-03T05:13:06.458Z,13.65
2023-07-03T05:14:06.399Z,13.73
2023-07-03T05:15:06.377Z,13.83
2023-07-03T05:16:06.477Z,13.93
2023-07-03T05:17:06.375Z,14.04
2023-07-03T05:18:06.497Z,14.17
2023-07-03T05:19:06.338Z,14.35
2023-07-03T05:20:06.339Z,14.45
2023-07-03T05:21:06.323Z,14.48
2023-07-03T05:22:06.338Z,14.53
2023-07-03T05:23:06.307Z,14.56
2023-07-03T05:24:06.297Z,14.60
2023-07-03T05:25:06.273Z,14.66
2023-07-03T05:26:06.280Z,14.71
2023-07-03T05:27:06.272Z,14.74
2023-07-03T05:28:06.253Z,14.78
2023-07-03T05:29:06.231Z,14.83
2023-07-03T05:30:06.239Z,14.83
2023-07-03T05:31:06.394Z,14.85
2023-07-03T05:32:06.209Z,14.87
2023-07-03T05:33:06.211Z,14.94
2023-07-03T05:34:06.185Z,15.03
2023-07-03T05:35:06.174Z,15.11
2023-07-03T05:36:06.172Z,15.16
2023-07-03T05:37:06.176Z,15.15
2023-07-03T05:38:06.124Z,15.18
2023-07-03T05:39:06.161Z,15.22
2023-07-03T05:40:06.142Z,15.30
2023-07-03T05:41:06.093Z,15.38
2023-07-03T05:42:06.078Z,15.46
2023-07-03T05:43:06.066Z,15.52
2023-07-03T05:44:06.062Z,15.62
2023-07-03T05:45:06.080Z,15.62
2023-07-03T05:46:06.042Z,15.66
2023-07-03T05:47:07.819Z,15.71
2023-07-03T05:48:06.152Z,15.77
2023-07-03T05:49:06.032Z,15.91
2023-07-03T05:50:06.034Z,16.01
2023-07-03T05:51:05.985Z,16.08
2023-07-03T05:52:05.988Z,16.25
2023-07-03T05:53:05.956Z,16.33
2023-07-03T05:54:06.002Z,16.33
2023-07-03T05:55:05.951Z,16.32
2023-07-03T05:56:05.953Z,16.36
2023-07-03T05:57:05.924Z,16.42
2023-07-03T05:58:05.929Z,16.51
2023-07-03T05:59:05.916Z,16.63
2023-07-03T06:00:05.911Z,16.65
2023-07-03T06:01:05.942Z,16.72
2023-07-03T06:02:05.869Z,16.75
2023-07-03T06:03:06.205Z,16.78
2023-07-03T06:04:05.967Z,16.73
2023-07-03T06:05:05.850Z,16.75
2023-07-03T06:06:05.849Z,16.78
2023-07-03T06:07:05.800Z,16.87
2023-07-03T06:08:05.891Z,16.91
2023-07-03T06:09:05.824Z,16.92
2023-07-03T06:10:05.768Z,16.99
2023-07-03T06:11:05.767Z,17.12
2023-07-03T06:12:05.751Z,17.17
2023-07-03T06:13:05.857Z,17.22
2023-07-03T06:14:05.727Z,17.25
2023-07-03T06:15:05.738Z,17.38
2023-07-03T06:16:05.730Z,17.54
2023-07-03T06:17:05.733Z,17.58
2023-07-03T06:18:05.767Z,17.49
2023-07-03T06:19:05.665Z,17.58
2023-07-03T06:20:05.653Z,17.62
2023-07-03T06:21:05.675Z,17.68
2023-07-03T06:22:05.686Z,17.74
2023-07-03T06:23:05.653Z,17.87
2023-07-03T06:24:05.611Z,17.84
2023-07-03T06:25:05.625Z,17.86
2023-07-03T06:26:05.628Z,17.99
2023-07-03T06:27:05.640Z,18.19
2023-07-03T06:28:05.580Z,18.29
2023-07-03T06:29:05.553Z,18.39
2023-07-03T06:30:05.580Z,18.36
2023-07-03T06:31:05.583Z,18.44
2023-07-03T06:32:05.532Z,18.50
2023-07-03T06:33:05.551Z,18.46
2023-07-03T06:34:05.512Z,18.42
2023-07-03T06:35:06.997Z,18.49
2023-07-03T06:36:05.562Z,18.54
2023-07-03T06:37:05.458Z,18.53
2023-07-03T06:38:05.450Z,18.47
2023-07-03T06:39:05.449Z,18.42
2023-07-03T06:40:05.435Z,18.47
2023-07-03T06:41:05.437Z,18.54
2023-07-03T06:42:05.453Z,18.60
2023-07-03T06:43:05.395Z,18.59
2023-07-03T06:44:05.405Z,18.64
2023-07-03T06:45:05.410Z,18.75
2023-07-03T06:46:05.363Z,18.84
2023-07-03T06:47:05.452Z,18.90
2023-07-03T06:48:05.451Z,18.96
2023-07-03T06:49:05.340Z,19.05
2023-07-03T06:50:05.339Z,19.20
2023-07-03T06:51:05.310Z,19.30
2023-07-03T06:52:05.289Z,19.42
2023-07-03T06:53:05.283Z,19.49
2023-07-03T06:54:05.301Z,19.58
2023-07-03T06:55:05.274Z,19.67
2023-07-03T06:56:05.241Z,19.83
2023-07-03T06:57:05.228Z,19.97
2023-07-03T06:58:05.236Z,20.05
2023-07-03T06:59:05.285Z,20.00
2023-07-03T07:00:05.186Z,19.97
2023-07-03T07:01:05.192Z,19.85
2023-07-03T07:02:05.210Z,19.79
2023-07-03T07:03:05.245Z,19.76
2023-07-03T07:04:05.221Z,19.70
2023-07-03T07:05:05.248Z,19.70
2023-07-03T07:06:05.379Z,19.65
2023-07-03T07:07:05.125Z,19.67
2023-07-03T07:08:05.122Z,19.67
2023-07-03T07:09:05.116Z,19.70
2023-07-03T07:10:05.128Z,19.79
2023-07-03T07:11:05.073Z,19.71
2023-07-03T07:12:05.076Z,19.68
2023-07-03T07:13:05.078Z,19.79
2023-07-03T07:14:05.064Z,19.82
2023-07-03T07:15:05.037Z,19.82
2023-07-03T07:16:05.020Z,19.75
2023-07-03T07:17:05.126Z,19.83
2023-07-03T07:18:05.069Z,19.94
2023-07-03T07:19:04.979Z,20.02
2023-07-03T07:20:05.000Z,20.10
2023-07-03T07:21:04.964Z,20.22
2023-07-03T07:22:04.982Z,20.27
2023-07-03T07:23:04.970Z,20.30
2023-07-03T07:24:04.931Z,20.48
2023-07-03T07:25:04.928Z,20.61
2023-07-03T07:26:04.948Z,20.68
2023-07-03T07:27:04.960Z,20.58
2023-07-03T07:28:04.913Z,20.51
2023-07-03T07:29:04.891Z,20.38
2023-07-03T07:30:04.881Z,20.48
2023-07-03T07:31:04.920Z,20.61
2023-07-03T07:32:04.857Z,20.76
2023-07-03T07:33:04.885Z,20.87
2023-07-03T07:34:04.824Z,21.11
2023-07-03T07:35:04.817Z,21.06
2023-07-03T07:36:04.815Z,20.93
2023-07-03T07:37:04.789Z,20.76
2023-07-03T07:38:04.808Z,20.81
2023-07-03T07:39:04.761Z,21.12
2023-07-03T07:40:04.767Z,21.26
2023-07-03T07:41:04.763Z,21.46
2023-07-03T07:42:04.721Z,21.79
2023-07-03T07:43:04.722Z,22.61
2023-07-03T07:44:04.702Z,23.38
2023-07-03T07:45:04.717Z,23.77
2023-07-03T07:46:04.716Z,24.55
2023-07-03T07:47:04.676Z,25.46
2023-07-03T07:48:04.730Z,26.08
2023-07-03T07:49:04.644Z,25.23
2023-07-03T07:50:04.653Z,25.17
2023-07-03T07:51:04.624Z,26.32
2023-07-03T07:52:04.600Z,26.86
2023-07-03T07:53:04.610Z,26.51
2023-07-03T07:54:04.595Z,26.06
2023-07-03T07:55:04.597Z,26.01
2023-07-03T07:56:04.579Z,25.17
2023-07-03T07:57:04.545Z,24.53
2023-07-03T07:58:04.606Z,24.64
2023-07-03T07:59:04.551Z,25.20
2023-07-03T08:00:04.570Z,25.69
2023-07-03T08:01:04.620Z,26.72
2023-07-03T08:02:04.544Z,26.39
2023-07-03T08:03:07.277Z,26.17
2023-07-03T08:04:04.502Z,25.56
2023-07-03T08:05:04.533Z,25.29
2023-07-03T08:06:04.646Z,25.42
2023-07-03T08:07:04.464Z,25.42
2023-07-03T08:08:04.474Z,25.08
2023-07-03T08:09:04.446Z,24.66
2023-07-03T08:10:04.408Z,24.59
2023-07-03T08:11:04.392Z,24.30
2023-07-03T08:12:04.405Z,23.89
2023-07-03T08:13:04.407Z,23.78
2023-07-03T08:14:04.400Z,23.07
2023-07-03T08:15:04.364Z,23.29
2023-07-03T08:16:04.356Z,23.54
2023-07-03T08:17:04.336Z,23.77
2023-07-03T08:18:04.373Z,24.18
2023-07-03T08:19:04.317Z,24.29
2023-07-03T08:20:04.299Z,24.19
2023-07-03T08:21:04.277Z,23.84
2023-07-03T08:22:04.299Z,23.63
2023-07-03T08:23:04.290Z,23.34
2023-07-03T08:24:05.281Z,23.26
2023-07-03T08:25:04.245Z,23.19
2023-07-03T08:26:04.236Z,23.21
2023-07-03T08:27:04.259Z,23.14
2023-07-03T08:28:04.218Z,23.22
2023-07-03T08:29:04.198Z,23.09
2023-07-03T08:30:04.181Z,22.45
2023-07-03T08:31:04.179Z,21.94
2023-07-03T08:32:04.387Z,21.86
2023-07-03T08:33:04.326Z,22.04
2023-07-03T08:34:04.231Z,22.01
2023-07-03T08:38:04.085Z,21.42
2023-07-03T08:39:04.084Z,21.55
2023-07-03T08:40:04.082Z,21.79
2023-07-03T08:41:04.067Z,22.29
2023-07-03T08:42:04.056Z,22.78
2023-07-03T08:43:04.049Z,23.54
2023-07-03T08:44:04.025Z,24.23
2023-07-03T08:45:04.038Z,24.77
2023-07-03T08:46:04.102Z,24.64
2023-07-03T08:47:11.616Z,24.21
2023-07-03T08:48:04.075Z,23.74
2023-07-03T08:49:03.986Z,23.31
2023-07-03T08:50:04.469Z,23.37
2023-07-03T08:51:03.957Z,23.35
2023-07-03T08:52:04.311Z,23.34
2023-07-03T08:53:04.641Z,23.35
2023-07-03T08:54:03.917Z,24.64
2023-07-03T08:55:03.960Z,25.86
2023-07-03T08:56:03.906Z,27.09
2023-07-03T08:57:03.889Z,28.09
2023-07-03T08:58:03.888Z,28.67
2023-07-03T08:59:03.867Z,28.46
2023-07-03T09:00:03.877Z,28.67
2023-07-03T09:01:03.912Z,28.65
2023-07-03T09:02:03.886Z,28.40
2023-07-03T09:03:03.974Z,29.08
2023-07-03T09:04:03.884Z,29.18
2023-07-03T09:05:03.891Z,28.89
2023-07-03T09:06:03.779Z,28.91
2023-07-03T09:07:03.887Z,29.48
2023-07-03T09:08:03.747Z,29.08
2023-07-03T09:09:03.776Z,28.02
2023-07-03T09:10:03.735Z,27.30
2023-07-03T09:11:03.711Z,26.78
2023-07-03T09:12:03.727Z,26.42
2023-07-03T09:13:03.706Z,26.36
2023-07-03T09:14:03.998Z,26.61
2023-07-03T09:15:05.662Z,26.78
2023-07-03T09:16:03.677Z,27.01
2023-07-03T09:17:03.691Z,27.74
2023-07-03T09:18:03.739Z,28.76
2023-07-03T09:19:03.657Z,29.70
2023-07-03T09:20:03.623Z,30.21
2023-07-03T09:21:03.613Z,30.38
2023-07-03T09:22:03.598Z,30.68
2023-07-03T09:23:03.619Z,29.95
2023-07-03T09:24:03.584Z,29.82
2023-07-03T09:25:03.580Z,30.32
2023-07-03T09:26:05.208Z,30.19
2023-07-03T09:27:03.725Z,30.28
2023-07-03T09:28:03.542Z,29.82
2023-07-03T09:29:03.513Z,28.88
2023-07-03T09:30:03.525Z,27.91
2023-07-03T09:31:04.962Z,27.43
2023-07-03T09:32:03.549Z,26.97
2023-07-03T09:33:03.531Z,26.50
2023-07-03T09:34:03.452Z,26.60
2023-07-03T09:35:03.475Z,26.49
2023-07-03T09:36:03.436Z,25.85
2023-07-03T09:37:03.459Z,25.94
2023-07-03T09:38:03.440Z,25.63
2023-07-03T09:39:03.448Z,25.39
2023-07-03T09:40:03.454Z,26.56
2023-07-03T09:41:03.397Z,27.50
2023-07-03T09:42:03.417Z,27.06
2023-07-03T09:43:03.358Z,26.73
2023-07-03T09:44:03.381Z,26.35
2023-07-03T09:45:03.353Z,26.34
2023-07-03T09:46:03.353Z,26.35
2023-07-03T09:47:03.379Z,26.13
2023-07-03T09:48:04.243Z,25.90
2023-07-03T09:49:03.308Z,25.71
2023-07-03T09:50:03.295Z,25.66
2023-07-03T09:51:07.606Z,26.51
2023-07-03T09:52:03.266Z,26.98
2023-07-03T09:53:09.036Z,26.47
2023-07-03T09:54:03.249Z,26.17
2023-07-03T09:55:03.235Z,25.82
2023-07-03T09:56:03.262Z,25.54
2023-07-03T09:57:03.207Z,25.49
2023-07-03T09:58:03.204Z,26.57
2023-07-03T09:59:03.207Z,27.71
2023-07-03T10:00:03.204Z,28.57
2023-07-03T10:01:03.285Z,29.15
2023-07-03T10:04:03.278Z,30.01
2023-07-03T10:07:03.266Z,27.03
2023-07-03T10:08:03.194Z,27.01
2023-07-03T10:12:03.136Z,30.57
2023-07-03T10:13:03.105Z,30.51
2023-07-03T10:14:03.087Z,30.18
2023-07-03T10:15:03.028Z,29.99
2023-07-03T10:16:03.024Z,29.47
2023-07-03T10:17:03.070Z,28.32
2023-07-03T10:18:03.003Z,27.81
2023-07-03T10:19:02.988Z,26.88
2023-07-03T10:20:02.964Z,26.32
2023-07-03T10:21:02.942Z,26.06
2023-07-03T10:22:02.937Z,26.06
2023-07-03T10:23:02.946Z,25.71
2023-07-03T10:24:02.950Z,25.36
2023-07-03T10:25:02.931Z,24.97
2023-07-03T10:26:02.893Z,25.04
2023-07-03T10:27:02.891Z,24.97
2023-07-03T10:28:02.962Z,25.23
2023-07-03T10:29:02.887Z,25.71
2023-07-03T10:30:02.860Z,25.49
2023-07-03T10:31:02.858Z,25.01
2023-07-03T10:32:03.437Z,24.98
2023-07-03T10:33:02.895Z,24.80
2023-07-03T10:34:02.915Z,24.46
2023-07-03T10:36:27.968Z,23.93
2023-07-03T10:37:14.216Z,23.54
2023-07-03T10:38:13.940Z,23.53
2023-07-03T10:39:13.948Z,23.59
2023-07-03T10:40:13.992Z,23.44
2023-07-03T10:41:13.923Z,23.47
2023-07-03T10:43:24.085Z,23.32
2023-07-03T10:44:25.054Z,22.93
2023-07-03T10:45:25.031Z,22.70
2023-07-03T10:46:26.024Z,22.60
2023-07-03T10:47:25.078Z,22.56
2023-07-03T10:48:25.004Z,23.31
2023-07-03T10:49:24.994Z,23.32
2023-07-03T10:50:24.976Z,23.42
2023-07-03T10:51:25.048Z,23.68
2023-07-03T10:52:26.030Z,24.87
2023-07-03T10:53:24.959Z,24.66
2023-07-03T10:54:24.942Z,24.56
2023-07-03T10:55:24.924Z,24.33
2023-07-03T10:56:24.939Z,24.14
2023-07-03T10:57:24.895Z,24.02
2023-07-03T10:58:25.063Z,24.55
2023-07-03T10:59:25.021Z,25.57
2023-07-03T11:00:24.894Z,25.41
2023-07-03T11:01:24.895Z,25.26
2023-07-03T11:02:24.896Z,25.17
2023-07-03T11:03:24.847Z,25.17
2023-07-03T11:04:26.030Z,25.27
2023-07-03T11:05:24.873Z,24.82
2023-07-03T11:06:24.815Z,24.64
2023-07-03T11:07:24.800Z,24.36
2023-07-03T11:08:24.794Z,24.12
2023-07-03T11:09:24.794Z,24.24
2023-07-03T11:10:25.295Z,26.01
2023-07-03T11:11:24.756Z,27.49
2023-07-03T11:12:24.734Z,28.43
2023-07-03T11:13:24.744Z,29.67
2023-07-03T11:14:24.733Z,30.82
2023-07-03T11:15:24.713Z,31.94
2023-07-03T11:16:26.198Z,31.52
2023-07-03T11:17:24.815Z,30.91
2023-07-03T11:20:24.825Z,34.23
2023-07-03T11:23:24.661Z,33.68
2023-07-03T11:24:24.618Z,31.76
2023-07-03T11:25:24.647Z,30.93
2023-07-03T11:28:26.863Z,28.20
2023-07-03T11:29:24.631Z,27.53
2023-07-03T11:30:24.724Z,27.24
2023-07-03T11:31:24.653Z,28.92
2023-07-03T11:32:25.122Z,29.07
2023-07-03T11:33:24.660Z,29.47
2023-07-03T11:36:32.405Z,28.14
2023-07-03T11:37:24.733Z,28.87
2023-07-03T11:40:25.958Z,29.92
2023-07-03T11:44:26.871Z,32.80
2023-07-03T11:45:24.501Z,32.49
2023-07-03T11:46:24.399Z,33.05
2023-07-03T11:47:24.414Z,32.90
2023-07-03T11:48:24.334Z,33.49
2023-07-03T11:49:24.335Z,33.53
2023-07-03T11:50:24.317Z,33.33
2023-07-03T11:51:24.394Z,31.59
2023-07-03T11:52:24.323Z,30.60
2023-07-03T11:53:24.310Z,30.01
2023-07-03T11:54:24.272Z,28.51
2023-07-03T11:55:24.253Z,29.27
2023-07-03T11:56:24.297Z,28.95
2023-07-03T11:57:24.233Z,27.58
2023-07-03T11:58:24.252Z,26.72
2023-07-03T11:59:24.233Z,26.13
2023-07-03T12:00:24.214Z,27.18
2023-07-03T12:01:24.335Z,29.26
2023-07-03T12:02:24.208Z,31.05
2023-07-03T12:03:24.199Z,32.02
2023-07-03T12:04:24.170Z,32.46
2023-07-03T12:05:24.178Z,33.35
2023-07-03T12:06:24.158Z,34.43
2023-07-03T12:07:24.140Z,35.03
2023-07-03T12:08:24.116Z,34.98
2023-07-03T12:09:24.119Z,33.96
2023-07-03T12:10:24.106Z,33.96
2023-07-03T12:11:24.096Z,34.65
2023-07-03T12:12:24.073Z,34.87
2023-07-03T12:13:24.073Z,34.53
2023-07-03T12:14:24.100Z,34.76
2023-07-03T12:15:24.063Z,34.23
2023-07-03T12:16:24.079Z,33.07
2023-07-03T12:17:24.037Z,31.99
2023-07-03T12:18:24.011Z,30.61
2023-07-03T12:19:24.065Z,29.37
2023-07-03T12:20:23.981Z,28.55
2023-07-03T12:21:23.990Z,28.03
2023-07-03T12:22:23.979Z,27.83
2023-07-03T12:23:23.949Z,27.53
2023-07-03T12:24:23.974Z,27.02
2023-07-03T12:25:23.948Z,26.57
2023-07-03T12:26:23.925Z,26.73
2023-07-03T12:27:23.992Z,26.93
2023-07-03T12:28:23.939Z,27.98
2023-07-03T12:29:24.089Z,27.77
2023-07-03T12:30:23.872Z,27.55
2023-07-03T12:31:23.981Z,27.34
2023-07-03T12:32:23.885Z,26.81
2023-07-03T12:33:23.876Z,26.81
2023-07-03T12:34:23.834Z,26.41
2023-07-03T12:35:23.817Z,26.16
2023-07-03T12:36:23.824Z,26.44
2023-07-03T12:37:23.799Z,26.56
2023-07-03T12:38:23.809Z,27.09
2023-07-03T12:39:23.773Z,27.43
2023-07-03T12:40:23.780Z,27.90
2023-07-03T12:41:23.753Z,29.92
2023-07-03T12:42:23.758Z,31.25
2023-07-03T12:43:23.752Z,32.39
2023-07-03T12:44:23.723Z,33.56
2023-07-03T12:45:23.712Z,33.66
2023-07-03T12:46:23.730Z,34.08
2023-07-03T12:47:23.727Z,34.36
2023-07-03T12:48:23.681Z,34.55
2023-07-03T12:49:23.662Z,34.00
2023-07-03T12:50:23.660Z,33.70
2023-07-03T12:51:23.639Z,34.48
2023-07-03T12:52:23.649Z,34.21
2023-07-03T12:53:23.616Z,34.43
2023-07-03T12:54:23.636Z,32.63
2023-07-03T12:55:23.609Z,31.25
2023-07-03T12:56:23.595Z,30.86
2023-07-03T12:57:23.606Z,30.51
2023-07-03T12:58:23.569Z,29.79
2023-07-03T12:59:25.542Z,29.36
2023-07-03T13:00:23.530Z,29.00
2023-07-03T13:01:23.628Z,28.45
2023-07-03T13:02:23.584Z,27.80
2023-07-03T13:03:23.501Z,27.03
2023-07-03T13:04:23.564Z,26.96
2023-07-03T13:05:23.755Z,26.91
2023-07-03T13:06:23.537Z,26.64
2023-07-03T13:07:23.475Z,26.87
2023-07-03T13:08:23.475Z,27.12
2023-07-03T13:09:23.448Z,27.48
2023-07-03T13:10:23.519Z,27.58
2023-07-03T13:11:23.453Z,27.59
2023-07-03T13:12:23.426Z,27.35
2023-07-03T13:13:23.470Z,27.20
2023-07-03T13:14:23.397Z,26.75
2023-07-03T13:15:23.390Z,26.90
2023-07-03T13:16:23.411Z,26.93
2023-07-03T13:17:23.384Z,26.21
2023-07-03T13:18:23.348Z,26.53
2023-07-03T13:19:23.338Z,26.66
2023-07-03T13:20:23.351Z,27.18
2023-07-03T13:21:23.307Z,27.59
2023-07-03T13:22:23.299Z,28.32
2023-07-03T13:23:23.288Z,29.81
2023-07-03T13:24:23.287Z,31.28